SBPP/PMG METAR and TAF weather

Enter ICAO airport designator
Station Type Date Time Source
SBPP METAR 2019/06/26 22:00 UTC NOAA

SBPP 262200Z 00000KT 1100 BR VV001 10/10 Q1016


Station Type Date Time Source
SBPP Decoded METAR 2019/06/26 22:00 UTC NOAA

Ponta Pora Intl , Brazil (SBPP) 22-33S 055-42W
Jun 26, 2019 - 06:00 PM EDT / 2019.06.26 2200 UTC
Wind: Calm:0
Visibility: less than 1 mile:0
Sky conditions: obscured
Weather: mist
Temperature: 50 F (10 C)
Dew Point: 50 F (10 C)
Relative Humidity: 100%
Pressure (altimeter): 30.00 in. Hg (1016 hPa)
ob: SBPP 262200Z 00000KT 1100 BR VV001 10/10 Q1016
cycle: 22

Station Type Date Time Source
SBPP TAF 2019/06/27 12:54 UTC NOAA

TAF SBPP 270930Z 2712/2812 00000KT 0200 FG OVC001 TX21/2718Z TN15/280 8Z
BECMG 2712/2714 03007KT 9000 SCT010
BECMG 2714/2716 9999 NSW SCT020
BECMG 2722/2724 SCT010 PROB40 2807/2811 0200 FG OVC001
RMK PER

Example: see airport list